Overview Statistics Trail Chart Weather Telemetry Raw packets
 

This is the latest recevied weather packets stored in our database for station/object 4S6DRJ-13. If no packets are shown the sender has not sent any weather packets the latest 10 day(s).

<< 266 267 268 269 270 271 272 >>
Time Temp. Humidity Pressure Rain* Wind** Luminosity Snow
1788077096 31.11° C 66% 1008.4 hPa 0 mm 1.79 m/s, 261° 967 W/m² -
1788076974 31.11° C 67% 1008.3 hPa 0 mm 1.79 m/s, 270° 890 W/m² -
1788076913 31.11° C 65% 1008.6 hPa 0 mm 2.68 m/s, 267° 854 W/m² -
1788076853 31.11° C 67% 1008.5 hPa 0 mm 1.34 m/s, 323° 849 W/m² -
1788076791 31.11° C 67% 1008.6 hPa 0 mm 3.58 m/s, 287° 848 W/m² -
1788076730 31.11° C 68% 1008.5 hPa 0 mm 0.89 m/s, 158° 908 W/m² -
1788076669 31.11° C 66% 1008.7 hPa 0 mm 2.24 m/s, 119° 877 W/m² -
1788076608 31.67° C 66% 1008.6 hPa 0 mm 1.34 m/s, 53° 960 W/m² -
1788076547 31.67° C 64% 1008.6 hPa 0 mm 2.24 m/s, 248° 956 W/m² -
1788076486 31.67° C 66% 1008.6 hPa 0 mm 0.89 m/s, 206° 891 W/m² -
1788076425 31.67° C 66% 1008.8 hPa 0 mm 1.79 m/s, 213° 816 W/m² -
1788076364 31.11° C 68% 1008.6 hPa 0 mm 1.34 m/s, 272° 886 W/m² -
1788076303 31.11° C 67% 1008.8 hPa 0 mm 2.68 m/s, 47° 962 W/m² -
1788076242 31.11° C 68% 1008.6 hPa 0 mm 0.89 m/s, 266° 948 W/m² -
1788076181 31.11° C 68% 1008.9 hPa 0 mm 1.34 m/s, 192° 941 W/m² -
1788076121 31.11° C 68% 1008.8 hPa 0 mm 0.89 m/s, 280° 934 W/m² -
1788076059 31.11° C 68% 1008.8 hPa 0 mm 1.34 m/s, 207° 952 W/m² -
1788075998 31.11° C 68% 1008.8 hPa 0 mm 1.79 m/s, 194° 929 W/m² -
1788075937 31.11° C 67% 1009 hPa 0 mm 0.89 m/s, 226° 891 W/m² -
1788075877 31.11° C 67% 1008.9 hPa 0 mm 1.34 m/s, 204° 971 W/m² -
1788075815 31.11° C 69% 1009 hPa 0 mm 0.89 m/s, 39° 961 W/m² -
1788075754 31.11° C 68% 1009 hPa 0 mm 2.24 m/s, 225° 657 W/m² -
1788075693 31.11° C 67% 1008.8 hPa 0 mm 2.68 m/s, 21° 967 W/m² -
1788075633 31.11° C 67% 1008.9 hPa 0 mm 2.68 m/s, 164° 961 W/m² -
1788075571 31.11° C 66% 1008.9 hPa 0 mm 0.89 m/s, 304° 969 W/m² -

* Rain latest hour (hover to see other rain measurements)
** Current wind speed in m/s (hover to see current wind gust speed)